createdAt,value
2022-11-09T00:00:03.276Z,1.90
2022-11-09T00:02:34.329Z,1.73
2022-11-09T00:05:12.312Z,2.10
2022-11-09T00:07:46.358Z,1.67
2022-11-09T00:10:22.839Z,1.83
2022-11-09T00:12:54.653Z,1.90
2022-11-09T00:15:36.954Z,1.87
2022-11-09T00:18:08.708Z,2.07
2022-11-09T00:20:48.092Z,2.33
2022-11-09T00:23:22.307Z,1.87
2022-11-09T00:25:57.218Z,2.00
2022-11-09T00:28:32.851Z,2.50
2022-11-09T00:31:05.118Z,1.90
2022-11-09T00:33:36.812Z,2.50
2022-11-09T00:36:13.775Z,2.00
2022-11-09T00:38:45.316Z,2.20
2022-11-09T00:41:16.837Z,2.27
2022-11-09T00:43:49.025Z,1.97
2022-11-09T00:46:21.160Z,2.10
2022-11-09T00:48:51.897Z,1.70
2022-11-09T00:51:38.099Z,1.83
2022-11-09T00:54:09.645Z,1.70
2022-11-09T00:56:43.224Z,2.30
2022-11-09T00:59:14.172Z,1.67
2022-11-09T01:01:48.320Z,1.83
2022-11-09T01:04:22.120Z,1.80
2022-11-09T01:07:06.659Z,2.10
2022-11-09T01:09:43.788Z,1.87
2022-11-09T01:12:15.220Z,2.07
2022-11-09T01:14:46.178Z,2.50
2022-11-09T01:17:18.693Z,2.63
2022-11-09T01:19:54.356Z,2.07
2022-11-09T01:22:30.525Z,2.17
2022-11-09T01:25:01.605Z,1.90
2022-11-09T01:27:37.246Z,2.00
2022-11-09T01:30:09.788Z,2.33
2022-11-09T01:32:42.991Z,2.30
2022-11-09T01:35:15.578Z,1.90
2022-11-09T01:37:48.629Z,2.43
2022-11-09T01:40:20.231Z,2.23
2022-11-09T01:42:53.952Z,2.37
2022-11-09T01:45:30.695Z,2.10
2022-11-09T01:48:09.066Z,2.30
2022-11-09T01:50:49.678Z,2.20
2022-11-09T01:53:29.734Z,2.03
2022-11-09T01:56:10.159Z,2.57
2022-11-09T01:58:45.690Z,2.27
2022-11-09T02:01:23.657Z,2.53
2022-11-09T02:04:05.252Z,1.97
2022-11-09T02:06:40.333Z,2.00
2022-11-09T02:09:24.432Z,2.30
2022-11-09T02:11:59.677Z,2.10
2022-11-09T02:14:32.504Z,2.30
2022-11-09T02:17:05.610Z,2.30
2022-11-09T02:19:36.642Z,2.23
2022-11-09T02:22:11.972Z,2.10
2022-11-09T02:24:45.430Z,2.40
2022-11-09T02:27:20.676Z,2.20
2022-11-09T02:29:54.169Z,2.27
2022-11-09T02:32:31.249Z,2.50
2022-11-09T02:35:02.439Z,2.77
2022-11-09T02:37:39.088Z,2.17
2022-11-09T02:40:16.589Z,2.90
2022-11-09T02:42:49.738Z,2.63
2022-11-09T02:45:22.175Z,2.53
2022-11-09T02:47:55.600Z,2.40
2022-11-09T02:50:32.872Z,2.87
2022-11-09T02:53:07.343Z,2.80
2022-11-09T02:55:38.375Z,2.50
2022-11-09T02:58:12.816Z,2.87
2022-11-09T03:00:45.664Z,2.70
2022-11-09T03:03:17.105Z,2.70
2022-11-09T03:05:50.929Z,2.50
2022-11-09T03:08:24.358Z,2.90
2022-11-09T03:10:56.644Z,5.10
2022-11-09T03:13:30.351Z,3.20
2022-11-09T03:16:02.238Z,6.73
2022-11-09T03:18:33.282Z,3.13
2022-11-09T03:21:09.273Z,3.13
2022-11-09T03:23:43.937Z,3.00
2022-11-09T03:26:16.901Z,3.20
2022-11-09T03:28:54.601Z,2.73
2022-11-09T03:31:25.832Z,3.40
2022-11-09T03:33:56.820Z,3.10
2022-11-09T03:36:31.827Z,3.20
2022-11-09T03:39:05.104Z,3.43
2022-11-09T03:41:46.140Z,3.67
2022-11-09T03:44:17.164Z,3.20
2022-11-09T03:46:49.326Z,3.20
2022-11-09T03:49:21.091Z,3.20
2022-11-09T03:51:58.863Z,3.30
2022-11-09T03:54:34.431Z,3.63
2022-11-09T03:57:07.687Z,3.23
2022-11-09T03:59:38.764Z,3.63
2022-11-09T04:02:15.335Z,3.50
2022-11-09T04:04:49.203Z,3.50
2022-11-09T04:07:23.465Z,3.40
2022-11-09T04:09:58.744Z,3.33
2022-11-09T04:12:30.371Z,3.37
2022-11-09T04:15:02.191Z,3.07
2022-11-09T04:17:33.761Z,3.23
2022-11-09T04:20:06.159Z,3.47
2022-11-09T04:22:40.644Z,3.10
2022-11-09T04:25:15.625Z,3.60
2022-11-09T04:27:50.706Z,3.20
2022-11-09T04:30:30.802Z,3.17
2022-11-09T04:33:04.051Z,2.80
2022-11-09T04:35:38.849Z,3.23
2022-11-09T04:38:19.037Z,3.00
2022-11-09T04:40:52.178Z,3.10
2022-11-09T04:43:23.353Z,3.03
2022-11-09T04:45:57.631Z,3.40
2022-11-09T04:48:32.207Z,3.50
2022-11-09T04:51:06.798Z,2.83
2022-11-09T04:53:38.875Z,2.93
2022-11-09T04:56:13.594Z,3.17
2022-11-09T04:58:50.721Z,3.13
2022-11-09T05:01:21.836Z,3.33
2022-11-09T05:03:53.792Z,2.90
2022-11-09T05:06:38.476Z,2.70
2022-11-09T05:09:15.835Z,2.73
2022-11-09T05:11:48.994Z,2.57
2022-11-09T05:14:21.111Z,3.13
2022-11-09T05:16:53.497Z,3.70
2022-11-09T05:19:26.026Z,3.43
2022-11-09T05:22:19.048Z,3.80
2022-11-09T05:24:51.279Z,3.50
2022-11-09T05:27:25.374Z,4.10
2022-11-09T05:29:58.448Z,3.93
2022-11-09T05:32:31.018Z,3.80
2022-11-09T05:35:04.581Z,3.80
2022-11-09T05:37:38.414Z,3.97
2022-11-09T05:40:12.727Z,4.20
2022-11-09T05:42:46.395Z,4.10
2022-11-09T05:45:41.316Z,4.27
2022-11-09T05:48:15.332Z,3.93
2022-11-09T05:50:51.466Z,3.80
2022-11-09T05:53:22.754Z,3.93
2022-11-09T05:55:57.226Z,3.73
2022-11-09T05:58:44.317Z,3.80
2022-11-09T06:01:20.518Z,4.10
2022-11-09T06:03:53.779Z,3.37
2022-11-09T06:06:26.380Z,2.97
2022-11-09T06:08:58.791Z,3.70
2022-11-09T06:11:31.172Z,4.00
2022-11-09T06:14:08.864Z,3.30
2022-11-09T06:16:41.648Z,3.73
2022-11-09T06:19:13.421Z,3.40
2022-11-09T06:21:49.934Z,3.67
2022-11-09T06:24:20.975Z,3.37
2022-11-09T06:26:52.147Z,3.80
2022-11-09T06:29:25.209Z,3.90
2022-11-09T06:31:56.418Z,4.40
2022-11-09T06:34:30.494Z,3.97
2022-11-09T06:37:01.618Z,4.07
2022-11-09T06:39:32.705Z,4.40
2022-11-09T06:42:05.037Z,4.50
2022-11-09T06:44:45.841Z,4.70
2022-11-09T06:47:17.204Z,4.07
2022-11-09T06:49:49.035Z,4.40
2022-11-09T06:52:20.211Z,4.73
2022-11-09T06:54:52.485Z,4.80
2022-11-09T06:57:24.040Z,4.33
2022-11-09T06:59:57.847Z,4.50
2022-11-09T07:02:29.098Z,4.37
2022-11-09T07:05:00.269Z,4.53
2022-11-09T07:07:36.764Z,4.13
2022-11-09T07:10:09.137Z,4.37
2022-11-09T07:12:40.682Z,4.10
2022-11-09T07:15:17.160Z,4.00
2022-11-09T07:17:51.458Z,3.40
2022-11-09T07:20:22.623Z,3.90
2022-11-09T07:22:57.980Z,3.77
2022-11-09T07:25:29.439Z,4.10
2022-11-09T07:28:08.464Z,4.20
2022-11-09T07:30:45.840Z,4.20
2022-11-09T07:33:23.803Z,3.90
2022-11-09T07:36:00.788Z,4.30
2022-11-09T07:38:32.563Z,4.17
2022-11-09T07:41:08.863Z,4.50
2022-11-09T07:43:43.544Z,4.00
2022-11-09T07:46:21.258Z,3.90
2022-11-09T07:48:53.158Z,4.40
2022-11-09T07:51:26.738Z,5.37
2022-11-09T07:54:02.813Z,4.40
2022-11-09T07:56:34.692Z,4.70
2022-11-09T07:59:08.084Z,4.63
2022-11-09T08:01:44.595Z,4.50
2022-11-09T08:04:20.415Z,4.67
2022-11-09T08:06:53.275Z,4.37
2022-11-09T08:09:26.928Z,4.60
2022-11-09T08:11:58.126Z,4.77
2022-11-09T08:14:29.200Z,4.80
2022-11-09T08:17:06.370Z,4.50
2022-11-09T08:19:38.502Z,3.90
2022-11-09T08:22:12.938Z,4.93
2022-11-09T08:24:44.015Z,4.40
2022-11-09T08:27:21.081Z,4.53
2022-11-09T08:29:52.101Z,4.80
2022-11-09T08:32:25.816Z,4.40
2022-11-09T08:35:03.145Z,4.20
2022-11-09T08:37:38.929Z,4.30
2022-11-09T08:40:13.846Z,4.07
2022-11-09T08:42:47.347Z,3.77
2022-11-09T08:45:20.251Z,3.80
2022-11-09T08:47:59.835Z,4.23
2022-11-09T08:50:33.938Z,4.20
2022-11-09T08:53:06.284Z,4.27
2022-11-09T08:55:38.044Z,3.67
2022-11-09T08:58:10.613Z,4.70
2022-11-09T09:00:46.294Z,4.20
2022-11-09T09:03:22.225Z,4.30
2022-11-09T09:06:07.652Z,3.80
2022-11-09T09:08:41.769Z,4.13
2022-11-09T09:11:13.117Z,4.10
2022-11-09T09:13:52.050Z,4.07
2022-11-09T09:16:27.714Z,4.37
2022-11-09T09:19:01.276Z,4.43
2022-11-09T09:21:35.460Z,3.90
2022-11-09T09:24:10.077Z,4.03
2022-11-09T09:26:48.242Z,3.90
2022-11-09T09:29:20.208Z,3.60
2022-11-09T09:31:52.284Z,4.20
2022-11-09T09:34:29.323Z,3.80
2022-11-09T09:37:00.380Z,4.40
2022-11-09T09:39:32.423Z,4.00
2022-11-09T09:42:09.419Z,4.17
2022-11-09T09:44:48.330Z,4.10
2022-11-09T09:47:25.966Z,4.17
2022-11-09T09:50:22.731Z,3.80
2022-11-09T09:53:24.951Z,3.77
2022-11-09T09:56:02.066Z,3.83
2022-11-09T09:58:35.320Z,3.67
2022-11-09T10:01:10.539Z,3.77
2022-11-09T10:03:42.452Z,4.03
2022-11-09T10:06:30.885Z,3.70
2022-11-09T10:09:09.713Z,4.10
2022-11-09T10:11:50.602Z,3.70
2022-11-09T10:14:51.025Z,4.03
2022-11-09T10:17:36.757Z,3.30
2022-11-09T10:20:25.396Z,3.23
2022-11-09T10:23:13.798Z,3.90
2022-11-09T10:26:03.530Z,4.37
2022-11-09T10:29:09.145Z,4.23
2022-11-09T10:31:36.807Z,4.33
2022-11-09T10:34:20.491Z,3.50
2022-11-09T10:37:01.710Z,4.30
2022-11-09T10:39:47.471Z,4.07
2022-11-09T10:42:27.563Z,4.33
2022-11-09T10:44:59.383Z,4.10
2022-11-09T10:47:30.512Z,3.87
2022-11-09T10:50:13.667Z,3.90
2022-11-09T10:52:47.671Z,3.97
2022-11-09T10:55:39.124Z,3.77
2022-11-09T10:58:25.467Z,3.70
2022-11-09T11:01:06.308Z,4.00
2022-11-09T11:03:40.711Z,4.03
2022-11-09T11:06:19.452Z,3.57
2022-11-09T11:08:55.746Z,3.83
2022-11-09T11:11:44.393Z,4.30
2022-11-09T11:14:23.108Z,3.60
2022-11-09T11:16:57.837Z,4.60
2022-11-09T11:19:44.608Z,4.13
2022-11-09T11:22:25.815Z,4.17
2022-11-09T11:25:03.963Z,4.10
2022-11-09T11:27:51.548Z,3.90
2022-11-09T11:30:29.495Z,4.13
2022-11-09T11:33:05.452Z,4.50
2022-11-09T11:35:45.660Z,4.33
2022-11-09T11:38:31.918Z,4.10
2022-11-09T11:41:24.955Z,4.63
2022-11-09T11:44:08.352Z,4.13
2022-11-09T11:46:51.063Z,4.50
2022-11-09T11:49:53.741Z,4.43
2022-11-09T11:52:33.002Z,4.00
2022-11-09T11:55:25.967Z,3.97
2022-11-09T11:58:20.890Z,4.83
2022-11-09T12:01:03.689Z,4.33
2022-11-09T12:04:00.946Z,4.23
2022-11-09T12:07:03.191Z,4.00
2022-11-09T12:09:51.197Z,4.10
2022-11-09T12:12:34.366Z,3.50
2022-11-09T12:15:24.718Z,4.30
2022-11-09T12:18:09.382Z,4.10
2022-11-09T12:20:47.704Z,3.97
2022-11-09T12:23:37.677Z,4.20
2022-11-09T12:26:24.064Z,4.00
2022-11-09T12:29:16.854Z,4.13
2022-11-09T12:31:59.515Z,4.40
2022-11-09T12:34:42.474Z,3.90
2022-11-09T12:37:19.592Z,4.23
2022-11-09T12:39:57.577Z,4.23
2022-11-09T12:42:43.491Z,4.50
2022-11-09T12:45:25.026Z,4.20
2022-11-09T12:47:56.908Z,4.00
2022-11-09T12:50:33.224Z,4.30
2022-11-09T12:53:09.781Z,4.03
2022-11-09T12:55:53.588Z,4.03
2022-11-09T12:58:30.232Z,3.90
2022-11-09T13:01:02.723Z,4.17
2022-11-09T13:03:38.428Z,4.33
2022-11-09T13:06:21.630Z,4.40
2022-11-09T13:09:11.541Z,3.93
2022-11-09T13:11:44.718Z,3.67
2022-11-09T13:14:42.153Z,3.83
2022-11-09T13:18:05.931Z,4.17
2022-11-09T13:20:55.956Z,4.40
2022-11-09T13:27:05.993Z,4.40
2022-11-09T13:29:56.768Z,3.40
2022-11-09T13:32:29.334Z,3.53
2022-11-09T13:35:01.491Z,3.60
2022-11-09T13:38:00.288Z,4.33
2022-11-09T13:40:49.345Z,3.50
2022-11-09T13:43:27.492Z,3.47
2022-11-09T13:46:02.470Z,3.80
2022-11-09T13:48:44.527Z,3.93
2022-11-09T13:51:18.032Z,3.60
2022-11-09T13:54:00.679Z,3.80
2022-11-09T13:56:38.853Z,3.57
2022-11-09T13:59:21.521Z,4.33
2022-11-09T14:01:57.440Z,3.93
2022-11-09T14:04:33.669Z,3.97
2022-11-09T14:07:14.514Z,3.93
2022-11-09T14:10:03.399Z,4.03
2022-11-09T14:12:46.669Z,4.00
2022-11-09T14:15:28.236Z,3.97
2022-11-09T14:18:15.174Z,3.60
2022-11-09T14:20:55.094Z,3.40
2022-11-09T14:23:33.647Z,3.67
2022-11-09T14:26:26.000Z,3.73
2022-11-09T14:29:03.197Z,3.50
2022-11-09T14:31:37.779Z,3.90
2022-11-09T14:34:21.012Z,3.47
2022-11-09T14:36:52.870Z,3.53
2022-11-09T14:39:30.760Z,3.77
2022-11-09T14:42:05.069Z,3.80
2022-11-09T14:44:43.255Z,3.33
2022-11-09T14:47:19.491Z,3.83
2022-11-09T14:49:56.641Z,3.43
2022-11-09T14:52:32.039Z,3.70
2022-11-09T14:55:06.511Z,3.20
2022-11-09T14:57:40.697Z,3.50
2022-11-09T15:00:31.609Z,3.37
2022-11-09T15:03:05.286Z,3.30
2022-11-09T15:05:43.162Z,3.40
2022-11-09T15:08:23.164Z,2.97
2022-11-09T15:10:58.203Z,3.10
2022-11-09T15:13:35.349Z,3.13
2022-11-09T15:16:10.660Z,3.03
2022-11-09T15:18:49.476Z,3.13
2022-11-09T15:21:25.846Z,3.03
2022-11-09T15:24:08.307Z,3.13
2022-11-09T15:26:43.119Z,2.90
2022-11-09T15:29:44.063Z,3.67
2022-11-09T15:32:28.241Z,3.53
2022-11-09T15:35:01.463Z,3.27
2022-11-09T15:37:34.243Z,3.30
2022-11-09T15:40:06.528Z,3.50
2022-11-09T15:42:40.032Z,3.40
2022-11-09T15:45:19.330Z,3.20
2022-11-09T15:47:56.924Z,3.20
2022-11-09T15:50:30.953Z,3.90
2022-11-09T15:53:04.136Z,3.33
2022-11-09T15:55:36.453Z,3.40
2022-11-09T15:58:08.165Z,3.50
2022-11-09T16:00:40.674Z,3.23
2022-11-09T16:03:15.119Z,3.60
2022-11-09T16:05:47.098Z,3.60
2022-11-09T16:08:19.517Z,3.90
2022-11-09T16:10:54.113Z,3.30
2022-11-09T16:13:25.098Z,3.50
2022-11-09T16:15:56.100Z,3.60
2022-11-09T16:18:29.407Z,3.23
2022-11-09T16:21:01.753Z,3.13
2022-11-09T16:23:33.270Z,3.20
2022-11-09T16:26:09.508Z,3.30
2022-11-09T16:28:41.133Z,3.03
2022-11-09T16:31:13.843Z,3.23
2022-11-09T16:33:47.223Z,3.20
2022-11-09T16:36:22.620Z,3.20
2022-11-09T16:38:55.685Z,2.77
2022-11-09T16:41:27.987Z,3.23
2022-11-09T16:44:00.569Z,3.23
2022-11-09T16:46:36.362Z,3.03
2022-11-09T16:49:10.689Z,3.50
2022-11-09T16:51:43.056Z,3.00
2022-11-09T16:54:14.089Z,2.90
2022-11-09T16:56:49.477Z,3.13
2022-11-09T16:59:21.576Z,2.50
2022-11-09T17:01:57.691Z,2.93
2022-11-09T17:04:31.357Z,2.43
2022-11-09T17:07:02.430Z,2.63
2022-11-09T17:09:38.121Z,3.17
2022-11-09T17:12:09.451Z,3.07
2022-11-09T17:14:41.654Z,3.10
2022-11-09T17:17:12.709Z,2.67
2022-11-09T17:19:51.167Z,2.83
2022-11-09T17:22:23.203Z,2.77
2022-11-09T17:24:54.819Z,3.03
2022-11-09T17:27:26.473Z,3.20
2022-11-09T17:29:57.820Z,2.87
2022-11-09T17:32:29.271Z,2.90
2022-11-09T17:35:02.181Z,2.47
2022-11-09T17:37:34.571Z,3.07
2022-11-09T17:40:08.990Z,2.40
2022-11-09T17:42:40.534Z,2.93
2022-11-09T17:45:13.995Z,2.67
2022-11-09T17:47:45.710Z,2.87
2022-11-09T17:50:20.794Z,2.40
2022-11-09T17:52:52.324Z,2.30
2022-11-09T17:55:23.232Z,2.70
2022-11-09T17:57:56.922Z,2.60
2022-11-09T18:00:30.780Z,2.57
2022-11-09T18:03:03.867Z,2.40
2022-11-09T18:05:40.317Z,2.70
2022-11-09T18:08:12.521Z,2.40
2022-11-09T18:10:47.310Z,2.50
2022-11-09T18:13:21.702Z,2.80
2022-11-09T18:15:53.444Z,2.80
2022-11-09T18:18:26.216Z,2.90
2022-11-09T18:21:00.838Z,3.13
2022-11-09T18:23:32.580Z,3.23
2022-11-09T18:26:04.096Z,2.87
2022-11-09T18:28:35.161Z,3.10
2022-11-09T18:31:07.403Z,3.07
2022-11-09T18:33:39.763Z,2.87
2022-11-09T18:36:16.502Z,2.43
2022-11-09T18:38:48.102Z,3.00
2022-11-09T18:41:21.664Z,2.97
2022-11-09T18:43:53.726Z,2.67
2022-11-09T18:46:26.664Z,3.23
2022-11-09T18:48:59.067Z,2.90
2022-11-09T18:51:33.282Z,2.93
2022-11-09T18:54:04.740Z,2.77
2022-11-09T18:56:35.833Z,2.97
2022-11-09T18:59:08.310Z,3.13
2022-11-09T19:01:39.671Z,3.40
2022-11-09T19:04:11.584Z,3.33
2022-11-09T19:06:45.339Z,3.20
2022-11-09T19:09:36.001Z,3.20
2022-11-09T19:12:09.479Z,2.67
2022-11-09T19:14:45.779Z,3.03
2022-11-09T19:17:19.936Z,2.47
2022-11-09T19:19:51.247Z,2.70
2022-11-09T19:22:24.406Z,2.60
2022-11-09T19:24:55.767Z,2.60
2022-11-09T19:27:30.232Z,2.80
2022-11-09T19:30:06.325Z,2.43
2022-11-09T19:32:40.151Z,2.80
2022-11-09T19:35:13.040Z,3.40
2022-11-09T19:37:46.533Z,3.17
2022-11-09T19:40:18.685Z,2.63
2022-11-09T19:42:51.362Z,2.53
2022-11-09T19:45:23.921Z,2.97
2022-11-09T19:47:55.813Z,2.50
2022-11-09T19:50:26.863Z,2.93
2022-11-09T19:53:00.295Z,2.83
2022-11-09T19:55:31.569Z,3.00
2022-11-09T19:58:03.157Z,3.13
2022-11-09T20:00:34.713Z,2.80
2022-11-09T20:03:07.277Z,3.00
2022-11-09T20:05:39.231Z,2.77
2022-11-09T20:08:13.570Z,2.57
2022-11-09T20:10:44.839Z,2.60
2022-11-09T20:13:14.718Z,2.80
2022-11-09T20:15:45.788Z,2.50
2022-11-09T20:18:17.864Z,2.50
2022-11-09T20:20:48.977Z,2.77
2022-11-09T20:23:23.120Z,3.50
2022-11-09T20:25:54.171Z,2.57
2022-11-09T20:28:25.807Z,3.30
2022-11-09T20:30:57.690Z,3.00
2022-11-09T20:33:29.723Z,3.20
2022-11-09T20:36:01.305Z,3.10
2022-11-09T20:38:35.677Z,14.10
2022-11-09T20:41:08.912Z,5.07
2022-11-09T20:43:41.084Z,2.50
2022-11-09T20:46:17.566Z,2.90
2022-11-09T20:48:55.364Z,2.97
2022-11-09T20:51:27.613Z,3.20
2022-11-09T20:54:06.983Z,2.70
2022-11-09T20:56:41.111Z,2.90
2022-11-09T20:59:12.310Z,3.07
2022-11-09T21:01:43.474Z,3.13
2022-11-09T21:04:14.648Z,2.50
2022-11-09T21:06:46.218Z,2.63
2022-11-09T21:09:19.550Z,1.80
2022-11-09T21:12:08.112Z,2.43
2022-11-09T21:14:39.867Z,2.10
2022-11-09T21:17:10.920Z,2.10
2022-11-09T21:19:42.004Z,2.70
2022-11-09T21:22:13.724Z,2.60
2022-11-09T21:25:03.324Z,2.00
2022-11-09T21:27:51.198Z,2.40
2022-11-09T21:30:24.193Z,2.10
2022-11-09T21:32:57.958Z,1.97
2022-11-09T21:35:30.094Z,2.20
2022-11-09T21:38:02.510Z,2.40
2022-11-09T21:40:35.766Z,2.63
2022-11-09T21:43:06.820Z,1.93
2022-11-09T21:45:37.884Z,2.37
2022-11-09T21:48:09.405Z,2.40
2022-11-09T21:50:40.454Z,2.27
2022-11-09T21:53:11.515Z,2.20
2022-11-09T21:55:46.720Z,2.10
2022-11-09T21:58:18.235Z,2.27
2022-11-09T22:00:49.360Z,2.20
2022-11-09T22:03:21.441Z,2.40
2022-11-09T22:05:53.723Z,2.00
2022-11-09T22:08:24.783Z,2.10
2022-11-09T22:11:07.267Z,2.50
2022-11-09T22:13:55.126Z,2.00
2022-11-09T22:16:29.162Z,2.27
2022-11-09T22:19:17.628Z,2.43
2022-11-09T22:21:49.335Z,2.47
2022-11-09T22:24:20.960Z,2.00
2022-11-09T22:26:54.784Z,2.10
2022-11-09T22:29:26.608Z,1.97
2022-11-09T22:31:59.136Z,2.10
2022-11-09T22:34:30.153Z,1.60
2022-11-09T22:37:01.459Z,1.80
2022-11-09T22:39:33.787Z,1.87
2022-11-09T22:42:08.140Z,2.40
2022-11-09T22:44:39.943Z,1.60
2022-11-09T22:47:11.200Z,1.93
2022-11-09T22:49:42.204Z,2.00
2022-11-09T22:52:13.264Z,2.33
2022-11-09T22:54:44.297Z,1.97
2022-11-09T22:57:18.603Z,2.07
2022-11-09T22:59:49.730Z,2.17
2022-11-09T23:02:20.903Z,1.70
2022-11-09T23:04:51.967Z,5.80
2022-11-09T23:07:23.073Z,1.90
2022-11-09T23:09:54.302Z,2.00
2022-11-09T23:12:27.429Z,2.03
2022-11-09T23:15:14.493Z,2.20
2022-11-09T23:18:01.995Z,2.00
2022-11-09T23:20:35.778Z,2.20
2022-11-09T23:23:07.901Z,2.60
2022-11-09T23:25:59.740Z,2.07
2022-11-09T23:28:34.991Z,2.60
2022-11-09T23:31:07.504Z,2.40
2022-11-09T23:33:39.281Z,2.33
2022-11-09T23:36:13.529Z,2.43
2022-11-09T23:38:44.542Z,2.00
2022-11-09T23:41:17.125Z,2.50
2022-11-09T23:43:50.363Z,2.83
2022-11-09T23:46:21.671Z,2.83
2022-11-09T23:48:54.247Z,2.67
2022-11-09T23:51:26.618Z,2.53
2022-11-09T23:53:57.775Z,2.67
2022-11-09T23:56:29.448Z,2.50
2022-11-09T23:59:03.355Z,2.40
